• Join FlightAware (Why Join?)
  • Login
  • US Flag 
10:53PM EDT


 

Airport Tracker/Info


-or-


 

Live Flight TrackerFlight Track Log ✈ AWE431 ✈ 03-May-2013 ✈ KLAS - KPHL

Flight Track Log - Related Links

Times and Time Zones

All times are in EDT time to prevent confusion due to time zone crossing. See the AWE431 flight status page for this flight to view local times or setup timezone preferences in your user account.

Time Position Orientation Groundspeed Altitude Reporting Facility
EDT Latitude Longitude Course Direction KTS MPH feet Rate Location/Type
01:51AM 36.0758 -115.1764 270° West 174 200 3,300  Level Los Angeles Center
01:52AM 36.0756 -115.2456 270° West 209 241 4,400 1,440 Climbing Los Angeles Center
01:53AM 36.1089 -115.2875 315° West 238 274 5,900 2,220 Climbing Los Angeles Center
01:54AM 36.1739 -115.2567 21° North 273 314 8,300 2,220 Climbing Los Angeles Center
01:55AM 36.1989 -115.1617 72° East 290 334 10,500 2,100 Climbing Los Angeles Center
01:56AM 36.1972 -115.0522 91° East 312 359 12,600 2,160 Climbing Los Angeles Center
01:57AM 36.1986 -114.9403 89° East 326 375 14,900 1,980 Climbing Los Angeles Center
01:58AM 36.1994 -114.8022 90° East 333 383 17,100 1,740 Climbing Los Angeles Center
01:59AM 36.1989 -114.6786 90° East 356 410 18,800 1,380 Climbing Los Angeles Center
02:00AM 36.1964 -114.5461 91° East 377 434 20,000 1,260 Climbing Los Angeles Center
02:01AM 36.1947 -114.4056 91° East 400 460 21,400 1,380 Climbing Los Angeles Center
02:02AM 36.1922 -114.2622 91° East 413 475 22,900 1,380 Climbing Los Angeles Center
02:03AM 36.2075 -114.1175 83° East 422 486 24,300 1,260 Climbing Los Angeles Center
02:04AM 36.2292 -113.9389 81° East 434 499 25,500 1,140 Climbing Los Angeles Center
02:05AM 36.2461 -113.7867 82° East 444 511 26,700 1,140 Climbing Los Angeles Center
02:06AM 36.2639 -113.6311 82° East 452 520 27,900 960 Climbing Los Angeles Center
02:07AM 36.2831 -113.4750 81° East 457 526 28,700 780 Climbing Los Angeles Center
02:08AM 36.3008 -113.3150 82° East 464 534 29,500 780 Climbing Los Angeles Center
02:09AM 36.3361 -113.1519 75° East 478 550 30,400 840 Climbing Los Angeles Center
02:10AM 36.3933 -113.0036 64° Northeast 480 552 31,300 900 Climbing Los Angeles Center
02:11AM 36.4486 -112.8533 65° Northeast 481 554 32,300 840 Climbing Los Angeles Center
02:12AM 36.5042 -112.7028 65° Northeast 481 554 33,100 720 Climbing Los Angeles Center
02:13AM 36.5594 -112.5514 66° East 482 555 33,800 660 Climbing Los Angeles Center
02:14AM 36.6150 -112.4006 65° Northeast 483 556 34,500 540 Climbing Los Angeles Center
02:15AM 36.6700 -112.2506 65° Northeast 482 555 35,000 240 Climbing Los Angeles Center
02:16AM 36.7239 -112.1000 66° East 480 552 35,000  Level Los Angeles Center
02:17AM 36.7464 -112.0403 65° Northeast 481 554 35,000  Level Denver Center
02:18AM 36.8003 -111.8875 66° East 483 556 35,000  Level Denver Center
02:19AM 36.8564 -111.7333 66° East 488 562 35,000  Level Denver Center
02:20AM 36.9131 -111.5781 65° Northeast 492 566 35,000  Level Denver Center
02:21AM 36.9689 -111.4231 66° East 492 566 35,000  Level Denver Center
02:22AM 37.0200 -111.2717 67° East 483 556 35,000  Level Denver Center
02:23AM 37.0731 -111.1175 67° East 483 556 35,000  Level Denver Center
02:24AM 37.1275 -110.9611 66° East 490 564 35,000  Level Denver Center
02:25AM 37.1928 -110.7750 66° East 489 563 35,000  Level Denver Center
02:26AM 37.2464 -110.6189 67° East 489 563 35,000  Level Denver Center
02:27AM 37.2992 -110.4625 67° East 487 560 35,000  Level Denver Center
02:28AM 37.3539 -110.3044 66° East 495 570 35,000  Level Denver Center
02:29AM 37.4017 -110.1611 67° East 498 573 35,000  Level Denver Center
02:30AM 37.4642 -109.9767 67° East 511 588 35,000  Level Denver Center
02:31AM 37.5169 -109.8200 67° East 508 585 35,000  Level Denver Center
02:32AM 37.5692 -109.6606 68° East 512 589 35,000  Level Denver Center
02:33AM 37.6228 -109.5008 67° East 515 593 35,000  Level Denver Center
02:34AM 37.6833 -109.3167 67° East 510 587 35,000  Level Denver Center
02:35AM 37.7350 -109.1575 68° East 510 587 35,000  Level Denver Center
02:36AM 37.7867 -108.9981 68° East 511 588 35,000  Level Denver Center
02:37AM 37.8208 -108.7997 78° East 517 595 35,000  Level Denver Center
02:38AM 37.8356 -108.6239 84° East 523 602 35,000  Level Denver Center
02:39AM 37.8497 -108.4522 84° East 517 595 35,000  Level Denver Center
02:40AM 37.8644 -108.2819 84° East 513 590 35,000  Level Denver Center
02:41AM 37.8811 -108.0803 84° East 516 594 35,000  Level Denver Center
02:42AM 37.8944 -107.9067 84° East 517 595 35,000  Level Denver Center
02:43AM 37.9086 -107.7344 84° East 515 593 35,000  Level Denver Center
02:44AM 37.9244 -107.5314 84° East 519 597 35,000  Level Denver Center
02:45AM 37.9386 -107.3569 84° East 519 597 35,000  Level Denver Center
02:46AM 37.9514 -107.1828 85° East 518 596 35,000  Level Denver Center
02:47AM 37.9642 -107.0072 85° East 522 601 35,000  Level Denver Center
02:48AM 37.9789 -106.8039 85° East 521 600 35,000  Level Denver Center
02:49AM 37.9906 -106.6303 85° East 520 598 35,000  Level Denver Center
02:50AM 38.0033 -106.4500 85° East 517 595 35,000  Level Denver Center
02:51AM 38.0144 -106.2767 85° East 516 594 35,000  Level Denver Center
02:52AM 38.0283 -106.0728 85° East 518 596 35,000  Level Denver Center
02:53AM 38.0383 -105.9006 86° East 514 592 35,000  Level Denver Center
02:54AM 38.0494 -105.7256 85° East 518 596 35,000  Level Denver Center
02:55AM 38.0622 -105.5247 85° East 513 590 35,000  Level Denver Center
02:56AM 38.0728 -105.3525 85° East 512 589 35,000  Level Denver Center
02:57AM 38.0819 -105.1806 86° East 510 587 35,000  Level Denver Center
02:58AM 38.0919 -105.0106 86° East 507 583 35,000  Level Denver Center
02:59AM 38.1025 -104.8106 86° East 507 583 35,000  Level Denver Center
03:00AM 38.1119 -104.6383 86° East 509 586 35,000  Level Denver Center
03:01AM 38.1228 -104.4372 86° East 508 585 35,000  Level Denver Center
03:02AM 38.1317 -104.2367 87° East 508 585 35,000  Level Denver Center
03:03AM 38.1411 -104.0642 86° East 509 586 35,000  Level Denver Center
03:04AM 38.1483 -103.8928 87° East 506 582 35,000  Level Denver Center
03:05AM 38.1569 -103.7214 86° East 505 581 35,000  Level Denver Center
03:06AM 38.1647 -103.5225 87° East 502 578 35,000  Level Denver Center
03:07AM 38.1725 -103.3522 87° East 503 579 35,000  Level Denver Center
03:08AM 38.1778 -103.1825 88° East 500 575 35,000  Level Denver Center
03:09AM 38.1864 -103.0058 86° East 499 574 35,000  Level Denver Center
03:10AM 38.1922 -102.8075 88° East 502 578 35,000  Level Denver Center
03:11AM 38.2044 -102.6403 85° East 496 571 35,000  Level Denver Center
03:12AM 38.2322 -102.4767 78° East 494 568 35,000  Level Denver Center
03:13AM 38.2583 -102.3139 78° East 491 565 35,000  Level Denver Center
03:14AM 38.2892 -102.1267 78° East 484 557 35,000  Level Denver Center
03:15AM 38.3156 -101.9636 78° East 489 563 35,000  Level Denver Center
03:16AM 38.3417 -101.8022 78° East 486 559 35,000  Level Denver Center
03:17AM 38.3708 -101.6147 79° East 482 555 35,000  Level Denver Center
03:18AM 38.3964 -101.4533 79° East 483 556 35,000  Level Denver Center
03:19AM 38.4211 -101.2917 79° East 484 557 35,000  Level Denver Center
03:20AM 38.4456 -101.1322 79° East 479 551 35,000  Level Denver Center
03:21AM 38.4742 -100.9461 79° East 477 549 35,000  Level Denver Center
03:22AM 38.4983 -100.7856 79° East 479 551 35,000  Level Denver Center
03:23AM 38.5219 -100.6239 79° East 483 556 35,000  Level Denver Center
03:24AM 38.5447 -100.4625 80° East 481 554 35,000  Level Denver Center
03:25AM 38.5728 -100.2794 79° East 472 543 35,000  Level Denver Center
03:26AM 38.5958 -100.1219 79° East 470 541 35,000  Level Denver Center
03:27AM 38.6139 -99.9908 80° East 468 539 35,000  Level Denver Center
03:28AM 38.6439 -99.7828 79° East 467 537 35,000  Level Denver Center
03:29AM 38.6661 -99.6267 80° East 465 535 35,000  Level Denver Center
03:30AM 38.6869 -99.4714 80° East 463 533 35,000  Level Denver Center
03:31AM 38.7122 -99.2903 80° East 463 533 35,000  Level Denver Center
03:32AM 38.7119 -99.2739 91° East 465 535 35,000  Level Kansas City Center
03:33AM 38.7361 -99.1103 79° East 465 535 35,000  Level Kansas City Center
03:34AM 38.7575 -98.9481 80° East 462 532 35,000  Level Kansas City Center
03:35AM 38.7781 -98.7875 81° East 457 526 35,000  Level Kansas City Center
03:36AM 38.8028 -98.5950 81° East 455 524 35,000 240 Level Kansas City Center
03:37AM 38.8244 -98.4353 80° East 454 522 35,600 840 Climbing Kansas City Center
03:38AM 38.8444 -98.2775 81° East 447 514 36,700 660 Climbing Kansas City Center
03:39AM 38.8636 -98.1239 81° East 436 502 37,000 120 Climbing Kansas City Center
03:40AM 38.8819 -97.9719 81° East 430 495 37,000  Level Kansas City Center
03:41AM 38.9019 -97.8172 81° East 422 486 37,000  Level Kansas City Center
03:42AM 38.9183 -97.6750 82° East 421 484 37,000  Level Kansas City Center
03:43AM 38.9408 -97.5086 80° East 422 486 37,000  Level Kansas City Center
03:44AM 38.9594 -97.3756 80° East 424 488 37,000  Level Kansas City Center
03:45AM 38.9817 -97.2133 80° East 423 487 37,000  Level Kansas City Center
03:46AM 39.0019 -97.0553 81° East 428 493 37,000  Level Kansas City Center
03:47AM 39.0211 -96.9103 80° East 430 495 37,000  Level Kansas City Center
03:48AM 39.0400 -96.7625 81° East 434 499 37,000  Level Kansas City Center
03:49AM 39.0575 -96.6158 81° East 435 501 37,000  Level Kansas City Center
03:50AM 39.0814 -96.4444 80° East 435 501 37,000  Level Kansas City Center
03:51AM 39.0994 -96.2978 81° East 433 498 37,000  Level Kansas City Center
03:52AM 39.1183 -96.1503 81° East 436 502 37,000  Level Kansas City Center
03:53AM 39.1394 -95.9792 81° East 433 498 37,000  Level Kansas City Center
03:54AM 39.1567 -95.8339 81° East 431 496 37,000  Level Kansas City Center
03:55AM 39.1753 -95.6881 81° East 429 494 37,000  Level Kansas City Center
03:56AM 39.1922 -95.5433 81° East 427 491 37,000  Level Kansas City Center
03:57AM 39.2122 -95.3742 81° East 426 490 37,000  Level Kansas City Center
03:58AM 39.2300 -95.2228 81° East 427 491 37,000  Level Kansas City Center
03:59AM 39.2469 -95.0747 82° East 423 487 37,000  Level Kansas City Center
04:00AM 39.2628 -94.9328 82° East 420 483 37,000  Level Kansas City Center
04:01AM 39.2789 -94.7914 82° East 417 480 37,000  Level Kansas City Center
04:02AM 39.3006 -94.6303 80° East 411 473 37,000  Level Kansas City Center
04:03AM 39.3175 -94.4933 81° East 405 466 37,000  Level Kansas City Center
04:04AM 39.3356 -94.3581 80° East 399 459 37,000  Level Kansas City Center
04:05AM 39.3556 -94.1986 81° East 402 463 37,000  Level Kansas City Center
04:06AM 39.3731 -94.0633 80° East 399 459 37,000  Level Kansas City Center
04:07AM 39.3897 -93.9267 81° East 402 463 37,000  Level Kansas City Center
04:08AM 39.4075 -93.7900 80° East 404 465 37,000  Level Kansas City Center
04:09AM 39.4272 -93.6311 81° East 406 467 37,000  Level Kansas City Center
04:10AM 39.4444 -93.4925 81° East 397 457 37,000  Level Kansas City Center
04:11AM 39.4614 -93.3525 81° East 398 458 37,000  Level Kansas City Center
04:12AM 39.4778 -93.2136 81° East 395 455 37,000  Level Kansas City Center
04:13AM 39.4953 -93.0736 81° East 397 457 37,000  Level Kansas City Center
04:14AM 39.5097 -92.9319 82° East 401 461 37,000  Level Kansas City Center
04:15AM 39.5250 -92.7928 82° East 396 456 37,000  Level Kansas City Center
04:16AM 39.5414 -92.6553 81° East 394 453 37,000  Level Kansas City Center
04:17AM 39.5569 -92.5147 82° East 395 455 37,000  Level Kansas City Center
04:18AM 39.5728 -92.3731 82° East 398 458 37,000  Level Kansas City Center
04:19AM 39.5886 -92.2325 82° East 399 459 37,000  Level Kansas City Center
04:20AM 39.6044 -92.0906 82° East 400 460 37,000  Level Kansas City Center
04:21AM 39.6194 -91.9489 82° East 400 460 37,000  Level Kansas City Center
04:22AM 39.6369 -91.7836 82° East 394 453 37,000  Level Kansas City Center
04:23AM 39.6519 -91.6417 82° East 397 457 37,000  Level Kansas City Center
04:24AM 39.6669 -91.5014 82° East 397 457 37,000  Level Kansas City Center
04:25AM 39.6808 -91.3594 83° East 398 458 37,000  Level Kansas City Center
04:26AM 39.6956 -91.2231 82° East 400 460 37,000  Level Kansas City Center
04:27AM 39.7100 -91.0794 83° East 401 461 37,000  Level Kansas City Center
04:28AM 39.7233 -90.9381 83° East 398 458 37,000  Level Kansas City Center
04:29AM 39.7369 -90.7956 83° East 396 456 37,000  Level Kansas City Center
04:30AM 39.7522 -90.6456 82° East 397 457 37,000  Level Kansas City Center
04:31AM 39.7653 -90.5047 83° East 396 456 37,000  Level Kansas City Center
04:32AM 39.7781 -90.3614 83° East 398 458 37,000  Level Kansas City Center
04:33AM 39.7914 -90.2192 83° East 399 459 37,000  Level Kansas City Center
04:34AM 39.8047 -90.0783 83° East 397 457 37,000  Level Kansas City Center
04:35AM 39.8175 -89.9353 83° East 398 458 37,000  Level Kansas City Center
04:36AM 39.8294 -89.7908 84° East 401 461 37,000  Level Kansas City Center
04:37AM 39.8400 -89.6469 84° East 402 463 37,000  Level Kansas City Center
04:38AM 39.8406 -89.5028 90° East 402 463 37,000  Level Kansas City Center
04:39AM 39.8408 -89.3597 90° East 400 460 37,000  Level Kansas City Center
04:40AM 39.8422 -89.2156 89° East 400 460 37,000  Level Kansas City Center
04:41AM 39.8425 -89.0689 90° East 404 465 37,000  Level Kansas City Center
04:42AM 39.8419 -88.9236 90° East 403 464 37,000  Level Kansas City Center
04:43AM 39.8419 -88.7783 90° East 404 465 37,000  Level Kansas City Center
04:44AM 39.8500 -88.6342 86° East 402 463 37,000  Level Kansas City Center
04:45AM 39.8653 -88.4886 82° East 403 464 37,000  Level Kansas City Center
04:46AM 39.8761 -88.3719 83° East 409 471 37,000  Level Chicago Center
04:47AM 39.8886 -88.2264 84° East 405 466 37,000  Level Chicago Center
04:48AM 39.9014 -88.0836 83° East 405 466 37,000  Level Chicago Center
04:49AM 39.9142 -87.9369 83° East 409 471 37,000  Level Chicago Center
04:50AM 39.9261 -87.7911 84° East 406 467 37,000  Level Chicago Center
04:50AM 39.9292 -87.7322 86° East 405 466 37,000  Level Indianapolis Center
04:51AM 39.9431 -87.5867 83° East 407 468 37,000  Level Indianapolis Center
04:52AM 39.9531 -87.4403 85° East 406 467 37,000  Level Indianapolis Center
04:53AM 39.9653 -87.2950 84° East 404 465 37,000  Level Indianapolis Center
04:54AM 39.9769 -87.1478 84° East 409 471 37,000  Level Indianapolis Center
04:55AM 39.9881 -86.9997 84° East 410 472 37,000  Level Indianapolis Center
04:56AM 39.9992 -86.8531 84° East 409 471 37,000  Level Indianapolis Center
04:57AM 40.0106 -86.7039 84° East 411 473 37,000  Level Indianapolis Center
04:58AM 40.0217 -86.5556 84° East 410 472 37,000  Level Indianapolis Center
04:59AM 40.0314 -86.4039 85° East 414 476 37,000 120 Level Indianapolis Center
05:00AM 40.0367 -86.3436 83° East 415 478 37,200 780 Climbing Chicago Center
05:01AM 40.0469 -86.1933 85° East 414 476 38,200 840 Climbing Chicago Center
05:01AM 40.0522 -86.1056 85° East 408 470 38,600 420 Climbing Indianapolis Center
05:02AM 40.0617 -85.9603 85° East 402 463 38,900 180 Climbing Indianapolis Center
05:03AM 40.0717 -85.8122 85° East 407 468 39,000  Climbing Indianapolis Center
05:04AM 40.0817 -85.6625 85° East 411 473 39,000  Level Indianapolis Center
05:05AM 40.0906 -85.5094 86° East 423 487 39,000  Level Indianapolis Center
05:06AM 40.1006 -85.3561 85° East 425 489 39,000  Level Indianapolis Center
05:07AM 40.1089 -85.2011 86° East 427 491 39,000  Level Indianapolis Center
05:08AM 40.1192 -85.0461 85° East 430 495 39,000 -60 Level Indianapolis Center
05:09AM 40.1278 -84.8969 86° East 426 490 38,900  Descending Indianapolis Center
05:10AM 40.1358 -84.7406 86° East 428 493 39,000  Climbing Indianapolis Center
05:11AM 40.1453 -84.5856 85° East 425 489 39,000  Level Indianapolis Center
05:12AM 40.1542 -84.4289 86° East 427 491 39,000  Level Indianapolis Center
05:13AM 40.1625 -84.2725 86° East 429 494 39,000 -60 Level Indianapolis Center
05:14AM 40.1703 -84.1142 86° East 431 496 38,900 -60 Descending Indianapolis Center
05:15AM 40.1789 -83.9567 86° East 430 495 38,900  Level Indianapolis Center
05:16AM 40.1867 -83.8006 86° East 426 490 39,000  Climbing Indianapolis Center
05:17AM 40.1931 -83.6439 87° East 425 489 39,000  Level Indianapolis Center
05:18AM 40.2019 -83.4858 86° East 428 493 39,000 -60 Level Indianapolis Center
05:19AM 40.2081 -83.3289 87° East 426 490 38,900  Descending Indianapolis Center
05:20AM 40.2144 -83.1694 87° East 432 497 39,000  Climbing Indianapolis Center
05:21AM 40.2214 -83.0133 87° East 425 489 38,900  Descending Indianapolis Center
05:22AM 40.2272 -82.8556 87° East 429 494 39,000  Climbing Indianapolis Center
05:24AM 40.2333 -82.6989 87° East 428 493 39,000  Level Indianapolis Center
05:25AM 40.2397 -82.5403 87° East 431 496 39,000  Level Indianapolis Center
05:26AM 40.2450 -82.4014 87° East 433 498 39,000  Level Indianapolis Center
05:27AM 40.2494 -82.2431 88° East 434 499 39,000  Level Indianapolis Center
05:28AM 40.2544 -82.0847 88° East 433 498 39,000  Level Indianapolis Center
05:29AM 40.2608 -81.9289 87° East 429 494 39,000  Level Indianapolis Center
05:30AM 40.2656 -81.7722 88° East 428 493 39,000  Level Indianapolis Center
05:31AM 40.2703 -81.6164 88° East 427 491 39,000  Level Indianapolis Center
05:31AM 40.2739 -81.4975 88° East 423 487 39,000  Level Cleveland Center
05:32AM 40.2794 -81.3397 87° East 423 487 39,000  Level Cleveland Center
05:33AM 40.2822 -81.1844 89° East 423 487 39,000  Level Cleveland Center
05:34AM 40.2872 -81.0294 88° East 423 487 39,000  Level Cleveland Center
05:35AM 40.2897 -80.8717 89° East 423 487 39,000 -420 Level Cleveland Center
05:36AM 40.2942 -80.7111 88° East 423 487 38,200 -900 Descending Cleveland Center
05:37AM 40.2986 -80.5506 88° East 423 487 37,300 -600 Descending Cleveland Center
05:38AM 40.3006 -80.3925 89° East 428 493 37,000 -180 Descending Cleveland Center
05:39AM 40.3022 -80.2347 89° East 433 498 37,000  Level Cleveland Center
05:40AM 40.3036 -80.0686 89° East 439 505 37,000  Level Cleveland Center
05:41AM 40.3092 -79.9053 87° East 444 511 37,000  Level Cleveland Center
05:42AM 40.3100 -79.7417 90° East 444 511 37,000  Level Cleveland Center
05:43AM 40.3128 -79.5756 89° East 444 511 37,000  Level Cleveland Center
05:44AM 40.3133 -79.4122 90° East 444 511 37,000  Level Cleveland Center
05:45AM 40.3114 -79.2325 91° East 439 505 37,000  Level Cleveland Center
05:46AM 40.3136 -79.0692 89° East 439 505 37,000  Level Cleveland Center
05:47AM 40.3156 -78.9058 89° East 439 505 37,000 -600 Level Cleveland Center
05:48AM 40.3150 -78.7425 90° East 445 512 35,900 -1,800 Descending Cleveland Center
05:49AM 40.3164 -78.5761 89° East 445 512 33,400 -2,340 Descending Cleveland Center
05:51AM 40.3144 -78.3472 91° East 449 517 30,100 -1,980 Descending New York Center
05:52AM 40.3103 -78.1833 92° East 449 517 28,500 -1,260 Descending New York Center
05:53AM 40.2969 -78.0294 96° East 442 509 27,600 -960 Descending New York Center
05:54AM 40.2833 -77.8756 97° East 432 497 26,600 -1,020 Descending New York Center
05:55AM 40.2714 -77.7247 96° East 426 490 25,700 -960 Descending New York Center
05:56AM 40.2589 -77.5819 96° East 408 470 24,700 -1,020 Descending New York Center
05:57AM 40.2461 -77.4392 97° East 403 464 23,700 -1,080 Descending New York Center
05:58AM 40.2297 -77.2853 98° East 393 452 22,600 -1,080 Descending New York Center
05:59AM 40.2164 -77.1456 97° East 388 447 21,600 -960 Descending New York Center
06:00AM 40.2053 -77.0058 96° East 388 447 20,700 -960 Descending New York Center
06:01AM 40.1911 -76.8742 98° East 381 438 19,700 -960 Descending New York Center
06:02AM 40.1814 -76.7400 95° East 370 426 18,800 -960 Descending New York Center
06:03AM 40.1669 -76.6139 98° East 365 420 17,800 -900 Descending New York Center
06:04AM 40.1583 -76.4908 95° East 350 403 17,100 -1,020 Descending New York Center
06:05AM 40.1469 -76.3786 98° East 327 376 15,800 -1,500 Descending New York Center
06:06AM 40.1353 -76.2717 98° East 300 345 14,100 -1,620 Descending New York Center
06:07AM 40.1236 -76.1622 98° East 300 345 12,600 -1,500 Descending New York Center
06:08AM 40.1133 -76.0692 98° East 293 337 11,200 -1,200 Descending New York Center
06:09AM 40.1014 -75.9594 98° East 288 331 10,300 -900 Descending New York Center
06:10AM 40.0931 -75.8694 97° East 278 320 9,500 -1,080 Descending New York Center
06:11AM 40.0828 -75.7656 97° East 273 314 8,200 -1,020 Descending New York Center
06:12AM 40.0781 -75.6811 94° East 262 302 7,500 -720 Descending New York Center
06:13AM 40.0442 -75.5892 116° Southeast 256 295 6,900 -720 Descending New York Center
06:14AM 39.9964 -75.5397 142° Southeast 250 288 6,100 -540 Descending New York Center
06:15AM 39.9383 -75.5792 208° Southwest 192 221 5,900 -660 Descending New York Center
06:16AM 39.8953 -75.6142 212° Southwest 192 221 4,800 -960 Descending New York Center
06:17AM 39.8350 -75.6072 175° South 198 228 4,100 -420 Descending New York Center
06:18AM 39.8167 -75.5667 120° Southeast 172 198 4,100  Level Philadelphia TRACON
06:19AM 39.8167 -75.5167 90° East 170 196 4,100 -300 Level Philadelphia TRACON
06:20AM 39.8333 -75.4500 72° East 170 196 3,500 -600 Descending Philadelphia TRACON